sensor_id;sensor_type;location;lat;lon;timestamp;temperature;humidity
24224;DHT22;12359;49.716;9.212;2023-04-24T00:00:06;11.60;55.00
24224;DHT22;12359;49.716;9.212;2023-04-24T00:02:32;11.50;56.50
24224;DHT22;12359;49.716;9.212;2023-04-24T00:04:59;11.40;54.60
24224;DHT22;12359;49.716;9.212;2023-04-24T00:07:29;11.40;56.60
24224;DHT22;12359;49.716;9.212;2023-04-24T00:09:54;11.30;59.70
24224;DHT22;12359;49.716;9.212;2023-04-24T00:12:20;11.30;59.40
24224;DHT22;12359;49.716;9.212;2023-04-24T00:14:46;11.30;59.40
24224;DHT22;12359;49.716;9.212;2023-04-24T00:17:12;11.30;61.30
24224;DHT22;12359;49.716;9.212;2023-04-24T00:19:38;11.30;65.80
24224;DHT22;12359;49.716;9.212;2023-04-24T00:22:03;11.30;67.60
24224;DHT22;12359;49.716;9.212;2023-04-24T00:24:29;11.30;70.20
24224;DHT22;12359;49.716;9.212;2023-04-24T00:26:55;11.30;71.90
24224;DHT22;12359;49.716;9.212;2023-04-24T00:29:21;11.30;72.60
24224;DHT22;12359;49.716;9.212;2023-04-24T00:31:47;11.30;73.60
24224;DHT22;12359;49.716;9.212;2023-04-24T00:34:12;11.40;72.40
24224;DHT22;12359;49.716;9.212;2023-04-24T00:36:38;11.30;74.40
24224;DHT22;12359;49.716;9.212;2023-04-24T00:39:04;11.30;73.50
24224;DHT22;12359;49.716;9.212;2023-04-24T00:41:30;11.30;70.70
24224;DHT22;12359;49.716;9.212;2023-04-24T00:43:56;11.30;73.30
24224;DHT22;12359;49.716;9.212;2023-04-24T00:46:21;11.40;77.00
24224;DHT22;12359;49.716;9.212;2023-04-24T00:48:47;11.40;77.70
24224;DHT22;12359;49.716;9.212;2023-04-24T00:51:13;11.40;77.50
24224;DHT22;12359;49.716;9.212;2023-04-24T00:53:39;11.50;64.50
24224;DHT22;12359;49.716;9.212;2023-04-24T00:56:05;11.50;68.30
24224;DHT22;12359;49.716;9.212;2023-04-24T00:58:31;11.50;69.40
24224;DHT22;12359;49.716;9.212;2023-04-24T01:00:57;11.50;66.70
24224;DHT22;12359;49.716;9.212;2023-04-24T01:03:27;11.50;58.20
24224;DHT22;12359;49.716;9.212;2023-04-24T01:05:55;11.60;46.10
24224;DHT22;12359;49.716;9.212;2023-04-24T01:08:26;11.60;36.10
24224;DHT22;12359;49.716;9.212;2023-04-24T01:10:52;11.60;39.70
24224;DHT22;12359;49.716;9.212;2023-04-24T01:13:21;11.70;36.30
24224;DHT22;12359;49.716;9.212;2023-04-24T01:15:47;11.70;37.50
24224;DHT22;12359;49.716;9.212;2023-04-24T01:18:13;11.70;31.90
24224;DHT22;12359;49.716;9.212;2023-04-24T01:20:41;11.70;28.20
24224;DHT22;12359;49.716;9.212;2023-04-24T01:23:08;11.80;32.40
24224;DHT22;12359;49.716;9.212;2023-04-24T01:25:34;11.80;30.10
24224;DHT22;12359;49.716;9.212;2023-04-24T01:28:00;11.80;30.20
24224;DHT22;12359;49.716;9.212;2023-04-24T01:30:27;11.80;22.30
24224;DHT22;12359;49.716;9.212;2023-04-24T01:32:53;11.90;20.50
24224;DHT22;12359;49.716;9.212;2023-04-24T01:35:19;11.90;20.60
24224;DHT22;12359;49.716;9.212;2023-04-24T01:37:45;11.90;21.30
24224;DHT22;12359;49.716;9.212;2023-04-24T01:40:11;11.90;23.00
24224;DHT22;12359;49.716;9.212;2023-04-24T01:42:37;11.90;23.10
24224;DHT22;12359;49.716;9.212;2023-04-24T01:45:04;11.90;21.20
24224;DHT22;12359;49.716;9.212;2023-04-24T01:47:31;11.90;15.00
24224;DHT22;12359;49.716;9.212;2023-04-24T01:49:58;11.90;17.90
24224;DHT22;12359;49.716;9.212;2023-04-24T01:52:24;11.90;21.10
24224;DHT22;12359;49.716;9.212;2023-04-24T01:54:50;11.90;20.30
24224;DHT22;12359;49.716;9.212;2023-04-24T01:57:16;11.90;20.80
24224;DHT22;12359;49.716;9.212;2023-04-24T01:59:42;11.90;22.70
24224;DHT22;12359;49.716;9.212;2023-04-24T02:02:08;11.90;22.00
24224;DHT22;12359;49.716;9.212;2023-04-24T02:04:34;11.90;21.80
24224;DHT22;12359;49.716;9.212;2023-04-24T02:06:59;11.90;19.20
24224;DHT22;12359;49.716;9.212;2023-04-24T02:09:25;11.90;19.50
24224;DHT22;12359;49.716;9.212;2023-04-24T02:11:51;11.90;20.10
24224;DHT22;12359;49.716;9.212;2023-04-24T02:14:16;11.90;21.20
24224;DHT22;12359;49.716;9.212;2023-04-24T02:16:42;11.90;19.00
24224;DHT22;12359;49.716;9.212;2023-04-24T02:19:09;11.90;15.80
24224;DHT22;12359;49.716;9.212;2023-04-24T02:21:35;11.90;20.50
24224;DHT22;12359;49.716;9.212;2023-04-24T02:24:01;11.90;18.80
24224;DHT22;12359;49.716;9.212;2023-04-24T02:26:27;11.90;20.10
24224;DHT22;12359;49.716;9.212;2023-04-24T02:28:52;11.90;27.60
24224;DHT22;12359;49.716;9.212;2023-04-24T02:31:18;11.90;22.20
24224;DHT22;12359;49.716;9.212;2023-04-24T02:33:44;11.90;18.80
24224;DHT22;12359;49.716;9.212;2023-04-24T02:36:10;11.90;20.70
24224;DHT22;12359;49.716;9.212;2023-04-24T02:38:35;11.90;19.10
24224;DHT22;12359;49.716;9.212;2023-04-24T02:41:01;11.90;19.00
24224;DHT22;12359;49.716;9.212;2023-04-24T02:43:29;11.90;16.00
24224;DHT22;12359;49.716;9.212;2023-04-24T02:45:55;11.90;16.10
24224;DHT22;12359;49.716;9.212;2023-04-24T02:48:20;11.90;17.60
24224;DHT22;12359;49.716;9.212;2023-04-24T02:50:46;11.90;20.60
24224;DHT22;12359;49.716;9.212;2023-04-24T02:53:12;11.90;19.30
24224;DHT22;12359;49.716;9.212;2023-04-24T02:55:38;11.90;20.30
24224;DHT22;12359;49.716;9.212;2023-04-24T02:58:03;11.90;19.50
24224;DHT22;12359;49.716;9.212;2023-04-24T03:00:29;11.90;16.20
24224;DHT22;12359;49.716;9.212;2023-04-24T03:02:55;11.90;14.90
24224;DHT22;12359;49.716;9.212;2023-04-24T03:05:21;11.80;11.10
24224;DHT22;12359;49.716;9.212;2023-04-24T03:07:47;11.80;13.90
24224;DHT22;12359;49.716;9.212;2023-04-24T03:10:12;11.80;16.50
24224;DHT22;12359;49.716;9.212;2023-04-24T03:12:38;11.70;20.10
24224;DHT22;12359;49.716;9.212;2023-04-24T03:15:04;11.70;17.60
24224;DHT22;12359;49.716;9.212;2023-04-24T03:17:30;11.80;19.00
24224;DHT22;12359;49.716;9.212;2023-04-24T03:19:55;11.80;18.40
24224;DHT22;12359;49.716;9.212;2023-04-24T03:22:21;11.80;17.10
24224;DHT22;12359;49.716;9.212;2023-04-24T03:24:47;11.80;14.90
24224;DHT22;12359;49.716;9.212;2023-04-24T03:27:12;11.80;19.00
24224;DHT22;12359;49.716;9.212;2023-04-24T03:29:38;11.90;15.70
24224;DHT22;12359;49.716;9.212;2023-04-24T03:32:04;11.90;18.80
24224;DHT22;12359;49.716;9.212;2023-04-24T03:34:29;11.90;21.80
24224;DHT22;12359;49.716;9.212;2023-04-24T03:36:55;11.90;25.30
24224;DHT22;12359;49.716;9.212;2023-04-24T03:39:20;11.90;24.90
24224;DHT22;12359;49.716;9.212;2023-04-24T03:41:46;12.00;28.60
24224;DHT22;12359;49.716;9.212;2023-04-24T03:44:12;12.00;48.70
24224;DHT22;12359;49.716;9.212;2023-04-24T03:46:37;11.90;58.70
24224;DHT22;12359;49.716;9.212;2023-04-24T03:49:03;11.80;64.70
24224;DHT22;12359;49.716;9.212;2023-04-24T03:51:29;11.70;68.10
24224;DHT22;12359;49.716;9.212;2023-04-24T03:53:56;11.70;62.40
24224;DHT22;12359;49.716;9.212;2023-04-24T03:56:22;11.60;66.10
24224;DHT22;12359;49.716;9.212;2023-04-24T03:58:48;11.60;62.30
24224;DHT22;12359;49.716;9.212;2023-04-24T04:01:13;11.50;59.00
24224;DHT22;12359;49.716;9.212;2023-04-24T04:03:41;11.60;58.90
24224;DHT22;12359;49.716;9.212;2023-04-24T04:06:07;11.50;64.00
24224;DHT22;12359;49.716;9.212;2023-04-24T04:08:32;11.50;65.00
24224;DHT22;12359;49.716;9.212;2023-04-24T04:10:58;11.50;58.20
24224;DHT22;12359;49.716;9.212;2023-04-24T04:13:24;11.50;54.80
24224;DHT22;12359;49.716;9.212;2023-04-24T04:15:49;11.40;53.20
24224;DHT22;12359;49.716;9.212;2023-04-24T04:18:15;11.40;56.10
24224;DHT22;12359;49.716;9.212;2023-04-24T04:20:41;11.40;57.20
24224;DHT22;12359;49.716;9.212;2023-04-24T04:23:07;11.30;55.00
24224;DHT22;12359;49.716;9.212;2023-04-24T04:25:33;11.30;54.60
24224;DHT22;12359;49.716;9.212;2023-04-24T04:27:58;11.30;59.70
24224;DHT22;12359;49.716;9.212;2023-04-24T04:30:25;11.20;57.80
24224;DHT22;12359;49.716;9.212;2023-04-24T04:32:51;11.20;52.10
24224;DHT22;12359;49.716;9.212;2023-04-24T04:35:17;11.10;44.80
24224;DHT22;12359;49.716;9.212;2023-04-24T04:37:42;11.10;44.80
24224;DHT22;12359;49.716;9.212;2023-04-24T04:40:08;11.00;43.80
24224;DHT22;12359;49.716;9.212;2023-04-24T04:42:37;11.00;44.80
24224;DHT22;12359;49.716;9.212;2023-04-24T04:45:07;10.90;39.60
24224;DHT22;12359;49.716;9.212;2023-04-24T04:47:34;10.80;37.60
24224;DHT22;12359;49.716;9.212;2023-04-24T04:50:00;10.70;38.80
24224;DHT22;12359;49.716;9.212;2023-04-24T04:52:26;10.60;33.30
24224;DHT22;12359;49.716;9.212;2023-04-24T04:54:52;10.60;39.90
24224;DHT22;12359;49.716;9.212;2023-04-24T04:57:18;10.60;44.40
24224;DHT22;12359;49.716;9.212;2023-04-24T04:59:43;10.60;46.30
24224;DHT22;12359;49.716;9.212;2023-04-24T05:02:09;10.50;48.50
24224;DHT22;12359;49.716;9.212;2023-04-24T05:04:35;10.50;46.70
24224;DHT22;12359;49.716;9.212;2023-04-24T05:07:00;10.50;51.80
24224;DHT22;12359;49.716;9.212;2023-04-24T05:09:26;10.50;52.30
24224;DHT22;12359;49.716;9.212;2023-04-24T05:11:55;10.50;53.50
24224;DHT22;12359;49.716;9.212;2023-04-24T05:14:20;10.50;50.00
24224;DHT22;12359;49.716;9.212;2023-04-24T05:16:47;10.50;51.20
24224;DHT22;12359;49.716;9.212;2023-04-24T05:19:13;10.50;44.30
24224;DHT22;12359;49.716;9.212;2023-04-24T05:21:40;10.60;34.20
24224;DHT22;12359;49.716;9.212;2023-04-24T05:24:06;10.70;29.50
24224;DHT22;12359;49.716;9.212;2023-04-24T05:26:32;10.80;26.60
24224;DHT22;12359;49.716;9.212;2023-04-24T05:28:58;11.00;26.20
24224;DHT22;12359;49.716;9.212;2023-04-24T05:31:24;11.10;26.00
24224;DHT22;12359;49.716;9.212;2023-04-24T05:33:50;11.20;25.40
24224;DHT22;12359;49.716;9.212;2023-04-24T05:36:16;11.30;21.00
24224;DHT22;12359;49.716;9.212;2023-04-24T05:38:42;11.20;1.00
24224;DHT22;12359;49.716;9.212;2023-04-24T05:41:07;11.20;8.20
24224;DHT22;12359;49.716;9.212;2023-04-24T05:43:33;11.20;1.00
24224;DHT22;12359;49.716;9.212;2023-04-24T05:45:59;11.20;1.00
24224;DHT22;12359;49.716;9.212;2023-04-24T05:48:24;11.20;1.00
24224;DHT22;12359;49.716;9.212;2023-04-24T05:50:50;11.30;1.00
24224;DHT22;12359;49.716;9.212;2023-04-24T05:53:18;11.40;1.00
24224;DHT22;12359;49.716;9.212;2023-04-24T05:55:43;11.60;1.00
24224;DHT22;12359;49.716;9.212;2023-04-24T05:58:10;11.90;1.00
24224;DHT22;12359;49.716;9.212;2023-04-24T06:00:36;12.20;1.00
24224;DHT22;12359;49.716;9.212;2023-04-24T06:03:02;12.60;1.00
24224;DHT22;12359;49.716;9.212;2023-04-24T06:05:29;13.40;99.90
24224;DHT22;12359;49.716;9.212;2023-04-24T06:07:55;13.80;2.70
24224;DHT22;12359;49.716;9.212;2023-04-24T06:10:21;14.40;99.90
24224;DHT22;12359;49.716;9.212;2023-04-24T06:12:47;15.40;99.90
24224;DHT22;12359;49.716;9.212;2023-04-24T06:15:13;15.60;99.90
24224;DHT22;12359;49.716;9.212;2023-04-24T06:17:38;16.30;99.90
24224;DHT22;12359;49.716;9.212;2023-04-24T06:20:05;16.10;99.90
24224;DHT22;12359;49.716;9.212;2023-04-24T06:22:32;16.70;99.90
24224;DHT22;12359;49.716;9.212;2023-04-24T06:24:57;17.70;99.90
24224;DHT22;12359;49.716;9.212;2023-04-24T06:27:23;18.40;99.90
24224;DHT22;12359;49.716;9.212;2023-04-24T06:29:49;19.50;1.00
24224;DHT22;12359;49.716;9.212;2023-04-24T06:32:21;20.00;99.90
24224;DHT22;12359;49.716;9.212;2023-04-24T06:34:46;20.70;99.90
24224;DHT22;12359;49.716;9.212;2023-04-24T06:37:12;21.20;99.90
24224;DHT22;12359;49.716;9.212;2023-04-24T06:39:38;21.50;52.60
24224;DHT22;12359;49.716;9.212;2023-04-24T06:42:03;21.70;17.80
24224;DHT22;12359;49.716;9.212;2023-04-24T06:44:29;22.00;17.40
24224;DHT22;12359;49.716;9.212;2023-04-24T06:46:55;22.60;9.00
24224;DHT22;12359;49.716;9.212;2023-04-24T06:49:21;22.70;1.00
24224;DHT22;12359;49.716;9.212;2023-04-24T06:51:46;22.90;1.00
24224;DHT22;12359;49.716;9.212;2023-04-24T06:54:12;23.30;1.00
24224;DHT22;12359;49.716;9.212;2023-04-24T06:56:38;23.90;1.00
24224;DHT22;12359;49.716;9.212;2023-04-24T06:59:04;24.10;1.00
24224;DHT22;12359;49.716;9.212;2023-04-24T07:01:30;24.20;1.00
24224;DHT22;12359;49.716;9.212;2023-04-24T07:03:55;23.20;1.00
24224;DHT22;12359;49.716;9.212;2023-04-24T07:06:21;22.30;1.00
24224;DHT22;12359;49.716;9.212;2023-04-24T07:08:48;21.50;1.00
24224;DHT22;12359;49.716;9.212;2023-04-24T07:11:14;21.00;1.00
24224;DHT22;12359;49.716;9.212;2023-04-24T07:13:39;20.40;1.00
24224;DHT22;12359;49.716;9.212;2023-04-24T07:16:07;19.50;1.00
24224;DHT22;12359;49.716;9.212;2023-04-24T07:18:33;18.40;1.00
24224;DHT22;12359;49.716;9.212;2023-04-24T07:20:59;17.60;30.30
24224;DHT22;12359;49.716;9.212;2023-04-24T07:23:26;17.00;99.90
24224;DHT22;12359;49.716;9.212;2023-04-24T07:25:51;16.50;1.00
24224;DHT22;12359;49.716;9.212;2023-04-24T07:28:17;15.80;1.00
24224;DHT22;12359;49.716;9.212;2023-04-24T07:30:43;15.30;99.90
24224;DHT22;12359;49.716;9.212;2023-04-24T07:33:09;15.00;99.90
24224;DHT22;12359;49.716;9.212;2023-04-24T07:35:36;14.60;99.90
24224;DHT22;12359;49.716;9.212;2023-04-24T07:38:02;14.30;99.90
24224;DHT22;12359;49.716;9.212;2023-04-24T07:40:28;14.10;7.30
24224;DHT22;12359;49.716;9.212;2023-04-24T07:42:54;13.70;1.00
24224;DHT22;12359;49.716;9.212;2023-04-24T07:45:19;13.60;91.70
24224;DHT22;12359;49.716;9.212;2023-04-24T07:47:45;13.50;99.90
24224;DHT22;12359;49.716;9.212;2023-04-24T07:50:12;13.50;99.60
24224;DHT22;12359;49.716;9.212;2023-04-24T07:52:38;13.60;41.30
24224;DHT22;12359;49.716;9.212;2023-04-24T07:55:04;13.90;1.00
24224;DHT22;12359;49.716;9.212;2023-04-24T07:57:30;14.20;1.00
24224;DHT22;12359;49.716;9.212;2023-04-24T07:59:56;14.30;99.90
24224;DHT22;12359;49.716;9.212;2023-04-24T08:02:22;14.90;99.90
24224;DHT22;12359;49.716;9.212;2023-04-24T08:04:52;16.30;99.90
24224;DHT22;12359;49.716;9.212;2023-04-24T08:07:19;17.70;99.90
24224;DHT22;12359;49.716;9.212;2023-04-24T08:09:45;18.30;99.90
24224;DHT22;12359;49.716;9.212;2023-04-24T08:12:10;18.40;99.90
24224;DHT22;12359;49.716;9.212;2023-04-24T08:14:36;18.40;99.90
24224;DHT22;12359;49.716;9.212;2023-04-24T08:17:02;17.80;99.90
24224;DHT22;12359;49.716;9.212;2023-04-24T08:19:28;17.40;99.90
24224;DHT22;12359;49.716;9.212;2023-04-24T08:21:54;17.40;99.90
24224;DHT22;12359;49.716;9.212;2023-04-24T08:24:20;17.50;99.90
24224;DHT22;12359;49.716;9.212;2023-04-24T08:26:46;17.60;99.90
24224;DHT22;12359;49.716;9.212;2023-04-24T08:29:15;18.20;99.90
24224;DHT22;12359;49.716;9.212;2023-04-24T08:31:41;19.00;99.90
24224;DHT22;12359;49.716;9.212;2023-04-24T08:34:07;19.80;96.80
24224;DHT22;12359;49.716;9.212;2023-04-24T08:36:32;20.20;34.60
24224;DHT22;12359;49.716;9.212;2023-04-24T08:38:58;20.30;1.00
24224;DHT22;12359;49.716;9.212;2023-04-24T08:41:24;20.30;1.00
24224;DHT22;12359;49.716;9.212;2023-04-24T08:43:52;20.40;1.00
24224;DHT22;12359;49.716;9.212;2023-04-24T08:46:19;20.40;1.00
24224;DHT22;12359;49.716;9.212;2023-04-24T08:48:45;20.40;1.00
24224;DHT22;12359;49.716;9.212;2023-04-24T08:51:11;20.70;1.00
24224;DHT22;12359;49.716;9.212;2023-04-24T08:53:37;20.60;1.00
24224;DHT22;12359;49.716;9.212;2023-04-24T08:56:03;20.90;1.00
24224;DHT22;12359;49.716;9.212;2023-04-24T08:58:31;20.40;1.00
24224;DHT22;12359;49.716;9.212;2023-04-24T09:00:57;19.30;1.00
24224;DHT22;12359;49.716;9.212;2023-04-24T09:03:23;18.40;1.00
24224;DHT22;12359;49.716;9.212;2023-04-24T09:05:50;17.60;1.00
24224;DHT22;12359;49.716;9.212;2023-04-24T09:08:19;16.80;1.00
24224;DHT22;12359;49.716;9.212;2023-04-24T09:10:45;16.20;25.00
24224;DHT22;12359;49.716;9.212;2023-04-24T09:13:11;15.80;99.90
24224;DHT22;12359;49.716;9.212;2023-04-24T09:15:38;15.40;99.90
24224;DHT22;12359;49.716;9.212;2023-04-24T09:18:04;15.10;99.90
24224;DHT22;12359;49.716;9.212;2023-04-24T09:20:31;14.90;1.00
24224;DHT22;12359;49.716;9.212;2023-04-24T09:22:58;14.90;1.00
24224;DHT22;12359;49.716;9.212;2023-04-24T09:25:33;15.00;1.00
24224;DHT22;12359;49.716;9.212;2023-04-24T09:28:02;15.30;23.80
24224;DHT22;12359;49.716;9.212;2023-04-24T09:30:28;15.30;99.90
24224;DHT22;12359;49.716;9.212;2023-04-24T09:33:20;15.20;1.00
24224;DHT22;12359;49.716;9.212;2023-04-24T09:35:50;14.90;1.00
24224;DHT22;12359;49.716;9.212;2023-04-24T09:38:16;14.70;99.90
24224;DHT22;12359;49.716;9.212;2023-04-24T09:40:42;14.60;78.50
24224;DHT22;12359;49.716;9.212;2023-04-24T09:43:10;14.70;32.90
24224;DHT22;12359;49.716;9.212;2023-04-24T09:45:38;15.00;99.90
24224;DHT22;12359;49.716;9.212;2023-04-24T09:48:04;15.60;1.00
24224;DHT22;12359;49.716;9.212;2023-04-24T09:50:32;15.70;1.00
24224;DHT22;12359;49.716;9.212;2023-04-24T09:53:06;15.50;99.90
24224;DHT22;12359;49.716;9.212;2023-04-24T09:55:40;15.50;99.90
24224;DHT22;12359;49.716;9.212;2023-04-24T09:58:08;15.30;1.00
24224;DHT22;12359;49.716;9.212;2023-04-24T10:00:34;15.00;1.00
24224;DHT22;12359;49.716;9.212;2023-04-24T10:03:02;14.80;1.00
24224;DHT22;12359;49.716;9.212;2023-04-24T10:05:35;14.60;1.00
24224;DHT22;12359;49.716;9.212;2023-04-24T10:08:10;14.50;20.90
24224;DHT22;12359;49.716;9.212;2023-04-24T10:10:41;14.30;1.00
24224;DHT22;12359;49.716;9.212;2023-04-24T10:13:09;14.30;29.40
24224;DHT22;12359;49.716;9.212;2023-04-24T10:15:36;14.30;1.00
24224;DHT22;12359;49.716;9.212;2023-04-24T10:18:04;14.30;1.00
24224;DHT22;12359;49.716;9.212;2023-04-24T10:20:32;14.20;1.00
24224;DHT22;12359;49.716;9.212;2023-04-24T10:22:58;14.10;1.00
24224;DHT22;12359;49.716;9.212;2023-04-24T10:25:35;14.00;99.90
24224;DHT22;12359;49.716;9.212;2023-04-24T10:28:02;14.00;50.90
24224;DHT22;12359;49.716;9.212;2023-04-24T10:30:30;14.10;99.90
24224;DHT22;12359;49.716;9.212;2023-04-24T10:32:56;14.20;99.90
24224;DHT22;12359;49.716;9.212;2023-04-24T10:35:22;14.30;99.90
24224;DHT22;12359;49.716;9.212;2023-04-24T10:37:54;14.40;99.90
24224;DHT22;12359;49.716;9.212;2023-04-24T10:40:32;14.60;99.90
24224;DHT22;12359;49.716;9.212;2023-04-24T10:42:59;14.60;45.50
24224;DHT22;12359;49.716;9.212;2023-04-24T10:45:27;14.50;99.90
24224;DHT22;12359;49.716;9.212;2023-04-24T10:50:41;15.30;14.00
24224;DHT22;12359;49.716;9.212;2023-04-24T10:53:16;15.50;1.00
24224;DHT22;12359;49.716;9.212;2023-04-24T10:55:44;15.40;87.60
24224;DHT22;12359;49.716;9.212;2023-04-24T10:58:11;15.10;99.90
24224;DHT22;12359;49.716;9.212;2023-04-24T11:00:38;14.80;99.90
24224;DHT22;12359;49.716;9.212;2023-04-24T11:03:25;14.50;99.90
24224;DHT22;12359;49.716;9.212;2023-04-24T11:06:08;14.20;99.90
24224;DHT22;12359;49.716;9.212;2023-04-24T11:11:17;14.60;99.90
24224;DHT22;12359;49.716;9.212;2023-04-24T11:19:04;17.80;1.00
24224;DHT22;12359;49.716;9.212;2023-04-24T11:21:42;18.50;99.90
24224;DHT22;12359;49.716;9.212;2023-04-24T11:29:41;18.80;99.90
24224;DHT22;12359;49.716;9.212;2023-04-24T11:34:49;18.90;99.90
24224;DHT22;12359;49.716;9.212;2023-04-24T11:37:15;18.60;99.90
24224;DHT22;12359;49.716;9.212;2023-04-24T11:39:41;18.00;91.00
24224;DHT22;12359;49.716;9.212;2023-04-24T11:42:08;17.30;98.90
24224;DHT22;12359;49.716;9.212;2023-04-24T11:44:34;17.00;99.90
24224;DHT22;12359;49.716;9.212;2023-04-24T11:47:04;16.50;99.90
24224;DHT22;12359;49.716;9.212;2023-04-24T11:49:30;16.30;99.90
24224;DHT22;12359;49.716;9.212;2023-04-24T11:51:56;16.60;99.90
24224;DHT22;12359;49.716;9.212;2023-04-24T11:54:22;16.80;99.90
24224;DHT22;12359;49.716;9.212;2023-04-24T11:56:48;16.70;99.90
24224;DHT22;12359;49.716;9.212;2023-04-24T11:59:15;17.20;99.90
24224;DHT22;12359;49.716;9.212;2023-04-24T12:01:44;17.70;99.90
24224;DHT22;12359;49.716;9.212;2023-04-24T12:04:11;18.20;99.90
24224;DHT22;12359;49.716;9.212;2023-04-24T12:06:36;18.40;99.90
24224;DHT22;12359;49.716;9.212;2023-04-24T12:09:02;18.80;99.90
24224;DHT22;12359;49.716;9.212;2023-04-24T12:11:28;19.00;52.30
24224;DHT22;12359;49.716;9.212;2023-04-24T12:13:54;18.70;34.10
24224;DHT22;12359;49.716;9.212;2023-04-24T12:16:19;18.30;36.30
24224;DHT22;12359;49.716;9.212;2023-04-24T12:18:45;18.20;37.80
24224;DHT22;12359;49.716;9.212;2023-04-24T12:21:23;18.20;42.20
24224;DHT22;12359;49.716;9.212;2023-04-24T12:23:54;17.80;46.00
24224;DHT22;12359;49.716;9.212;2023-04-24T12:26:20;17.50;35.70
24224;DHT22;12359;49.716;9.212;2023-04-24T12:28:48;17.20;66.80
24224;DHT22;12359;49.716;9.212;2023-04-24T12:31:15;17.00;95.40
24224;DHT22;12359;49.716;9.212;2023-04-24T12:33:41;16.80;99.90
24224;DHT22;12359;49.716;9.212;2023-04-24T12:36:10;16.60;99.90
24224;DHT22;12359;49.716;9.212;2023-04-24T12:38:37;16.30;99.90
24224;DHT22;12359;49.716;9.212;2023-04-24T12:41:11;15.80;99.90
24224;DHT22;12359;49.716;9.212;2023-04-24T12:43:37;15.70;99.90
24224;DHT22;12359;49.716;9.212;2023-04-24T12:46:03;15.60;99.90
24224;DHT22;12359;49.716;9.212;2023-04-24T12:48:30;15.70;99.90
24224;DHT22;12359;49.716;9.212;2023-04-24T12:50:59;15.80;99.90
24224;DHT22;12359;49.716;9.212;2023-04-24T12:53:28;16.00;1.00
24224;DHT22;12359;49.716;9.212;2023-04-24T12:55:57;16.20;99.90
24224;DHT22;12359;49.716;9.212;2023-04-24T12:58:23;16.60;99.90
24224;DHT22;12359;49.716;9.212;2023-04-24T13:00:50;16.60;99.90
24224;DHT22;12359;49.716;9.212;2023-04-24T13:03:15;16.30;99.90
24224;DHT22;12359;49.716;9.212;2023-04-24T13:05:42;16.10;99.90
24224;DHT22;12359;49.716;9.212;2023-04-24T13:08:08;15.90;99.90
24224;DHT22;12359;49.716;9.212;2023-04-24T13:10:34;15.70;99.90
24224;DHT22;12359;49.716;9.212;2023-04-24T13:13:00;15.40;99.90
24224;DHT22;12359;49.716;9.212;2023-04-24T13:15:26;15.20;99.90
24224;DHT22;12359;49.716;9.212;2023-04-24T13:17:51;15.00;99.90
24224;DHT22;12359;49.716;9.212;2023-04-24T13:20:18;14.60;1.00
24224;DHT22;12359;49.716;9.212;2023-04-24T13:22:43;14.30;65.60
24224;DHT22;12359;49.716;9.212;2023-04-24T13:25:09;13.90;99.90
24224;DHT22;12359;49.716;9.212;2023-04-24T13:27:37;13.70;42.40
24224;DHT22;12359;49.716;9.212;2023-04-24T13:30:03;13.20;99.90
24224;DHT22;12359;49.716;9.212;2023-04-24T13:32:29;12.80;1.00
24224;DHT22;12359;49.716;9.212;2023-04-24T13:34:55;12.80;1.00
24224;DHT22;12359;49.716;9.212;2023-04-24T13:37:21;12.90;1.00
24224;DHT22;12359;49.716;9.212;2023-04-24T13:39:48;13.20;1.00
24224;DHT22;12359;49.716;9.212;2023-04-24T13:42:13;13.70;1.00
24224;DHT22;12359;49.716;9.212;2023-04-24T13:44:40;14.10;99.90
24224;DHT22;12359;49.716;9.212;2023-04-24T13:47:05;14.30;99.90
24224;DHT22;12359;49.716;9.212;2023-04-24T13:49:31;14.50;99.90
24224;DHT22;12359;49.716;9.212;2023-04-24T13:51:57;14.90;99.90
24224;DHT22;12359;49.716;9.212;2023-04-24T13:54:22;15.20;99.90
24224;DHT22;12359;49.716;9.212;2023-04-24T13:56:51;15.10;99.90
24224;DHT22;12359;49.716;9.212;2023-04-24T13:59:17;15.10;1.00
24224;DHT22;12359;49.716;9.212;2023-04-24T14:01:44;15.10;1.00
24224;DHT22;12359;49.716;9.212;2023-04-24T14:04:10;15.20;1.00
24224;DHT22;12359;49.716;9.212;2023-04-24T14:06:36;15.20;1.00
24224;DHT22;12359;49.716;9.212;2023-04-24T14:09:02;15.20;1.00
24224;DHT22;12359;49.716;9.212;2023-04-24T14:11:28;15.20;99.90
24224;DHT22;12359;49.716;9.212;2023-04-24T14:13:54;15.30;1.00
24224;DHT22;12359;49.716;9.212;2023-04-24T14:16:22;15.50;49.00
24224;DHT22;12359;49.716;9.212;2023-04-24T14:18:47;15.70;1.00
24224;DHT22;12359;49.716;9.212;2023-04-24T14:21:13;15.80;99.90
24224;DHT22;12359;49.716;9.212;2023-04-24T14:23:39;16.00;99.90
24224;DHT22;12359;49.716;9.212;2023-04-24T14:26:04;15.80;99.90
24224;DHT22;12359;49.716;9.212;2023-04-24T14:28:30;15.50;1.00
24224;DHT22;12359;49.716;9.212;2023-04-24T14:30:56;15.20;99.90
24224;DHT22;12359;49.716;9.212;2023-04-24T14:33:22;15.00;99.90
24224;DHT22;12359;49.716;9.212;2023-04-24T14:35:47;15.00;99.90
24224;DHT22;12359;49.716;9.212;2023-04-24T14:38:13;14.90;99.90
24224;DHT22;12359;49.716;9.212;2023-04-24T14:40:40;15.00;99.90
24224;DHT22;12359;49.716;9.212;2023-04-24T14:43:05;15.00;37.20
24224;DHT22;12359;49.716;9.212;2023-04-24T14:45:32;15.10;17.90
24224;DHT22;12359;49.716;9.212;2023-04-24T14:47:58;15.20;19.50
24224;DHT22;12359;49.716;9.212;2023-04-24T14:50:23;15.20;99.90
24224;DHT22;12359;49.716;9.212;2023-04-24T14:52:53;15.10;99.90
24224;DHT22;12359;49.716;9.212;2023-04-24T14:55:20;15.30;1.00
24224;DHT22;12359;49.716;9.212;2023-04-24T14:57:46;15.50;99.90
24224;DHT22;12359;49.716;9.212;2023-04-24T15:00:12;15.40;49.50
24224;DHT22;12359;49.716;9.212;2023-04-24T15:02:38;15.30;99.90
24224;DHT22;12359;49.716;9.212;2023-04-24T15:05:07;15.20;99.90
24224;DHT22;12359;49.716;9.212;2023-04-24T15:07:33;15.10;99.90
24224;DHT22;12359;49.716;9.212;2023-04-24T15:10:00;15.10;99.90
24224;DHT22;12359;49.716;9.212;2023-04-24T15:12:26;15.00;99.90
24224;DHT22;12359;49.716;9.212;2023-04-24T15:14:54;14.90;1.00
24224;DHT22;12359;49.716;9.212;2023-04-24T15:17:19;15.00;1.00
24224;DHT22;12359;49.716;9.212;2023-04-24T15:19:45;15.00;1.00
24224;DHT22;12359;49.716;9.212;2023-04-24T15:22:11;15.10;99.90
24224;DHT22;12359;49.716;9.212;2023-04-24T15:24:37;15.10;1.00
24224;DHT22;12359;49.716;9.212;2023-04-24T15:27:03;15.00;99.90
24224;DHT22;12359;49.716;9.212;2023-04-24T15:29:28;15.00;99.90
24224;DHT22;12359;49.716;9.212;2023-04-24T15:31:54;14.80;99.90
24224;DHT22;12359;49.716;9.212;2023-04-24T15:34:20;14.70;99.90
24224;DHT22;12359;49.716;9.212;2023-04-24T15:36:46;14.60;99.90
24224;DHT22;12359;49.716;9.212;2023-04-24T15:39:12;14.70;99.90
24224;DHT22;12359;49.716;9.212;2023-04-24T15:41:37;14.70;1.00
24224;DHT22;12359;49.716;9.212;2023-04-24T15:44:03;14.60;99.90
24224;DHT22;12359;49.716;9.212;2023-04-24T15:46:29;14.50;99.90
24224;DHT22;12359;49.716;9.212;2023-04-24T15:48:55;14.60;99.90